createdAt,value
2022-11-05T00:02:05.988Z,10.13
2022-11-05T00:04:33.941Z,10.12
2022-11-05T00:07:06.453Z,10.12
2022-11-05T00:09:33.562Z,10.13
2022-11-05T00:12:03.232Z,10.12
2022-11-05T00:14:29.773Z,10.12
2022-11-05T00:16:56.243Z,10.12
2022-11-05T00:19:22.756Z,10.12
2022-11-05T00:21:50.637Z,10.11
2022-11-05T00:24:21.723Z,10.10
2022-11-05T00:26:50.634Z,10.10
2022-11-05T00:29:17.315Z,10.10
2022-11-05T00:31:43.854Z,10.11
2022-11-05T00:34:10.400Z,10.10
2022-11-05T00:36:36.994Z,10.11
2022-11-05T00:39:06.754Z,10.10
2022-11-05T00:41:33.321Z,10.11
2022-11-05T00:44:00.051Z,10.11
2022-11-05T00:46:26.916Z,10.11
2022-11-05T00:48:53.479Z,10.11
2022-11-05T00:51:20.296Z,10.12
2022-11-05T00:53:46.808Z,10.11
2022-11-05T00:56:14.941Z,10.12
2022-11-05T00:58:41.589Z,10.12
2022-11-05T01:01:10.592Z,10.12
2022-11-05T01:03:39.369Z,10.09
2022-11-05T01:06:08.192Z,10.07
2022-11-05T01:08:34.807Z,10.06
2022-11-05T01:11:08.637Z,10.06
2022-11-05T01:13:36.704Z,10.04
2022-11-05T01:16:06.663Z,10.01
2022-11-05T01:18:33.267Z,9.99
2022-11-05T01:20:59.886Z,9.98
2022-11-05T01:23:26.624Z,9.96
2022-11-05T01:25:53.258Z,9.96
2022-11-05T01:28:19.878Z,9.94
2022-11-05T01:30:55.345Z,9.94
2022-11-05T01:33:21.869Z,9.91
2022-11-05T01:35:48.373Z,9.89
2022-11-05T01:38:14.849Z,9.87
2022-11-05T01:40:42.896Z,9.85
2022-11-05T01:43:16.013Z,9.83
2022-11-05T01:45:43.970Z,9.81
2022-11-05T01:48:16.481Z,9.79
2022-11-05T01:50:46.650Z,9.76
2022-11-05T01:53:19.726Z,9.75
2022-11-05T01:55:51.506Z,9.74
2022-11-05T01:58:22.361Z,9.72
2022-11-05T02:00:49.004Z,9.70
2022-11-05T02:03:18.088Z,9.68
2022-11-05T02:05:46.220Z,9.65
2022-11-05T02:08:19.893Z,9.62
2022-11-05T02:10:47.355Z,9.60
2022-11-05T02:13:14.078Z,9.57
2022-11-05T02:15:49.556Z,9.54
2022-11-05T02:18:27.648Z,9.53
2022-11-05T02:21:05.534Z,9.53
2022-11-05T02:23:57.738Z,9.52
2022-11-05T02:26:54.698Z,9.48
2022-11-05T02:29:54.333Z,9.46
2022-11-05T02:32:32.804Z,9.45
2022-11-05T02:35:11.345Z,9.43
2022-11-05T02:37:40.485Z,9.40
2022-11-05T02:40:16.493Z,9.40
2022-11-05T02:42:47.016Z,9.40
2022-11-05T02:45:26.566Z,9.38
2022-11-05T02:48:04.481Z,9.37
2022-11-05T02:50:34.836Z,9.35
2022-11-05T02:53:11.737Z,9.32
2022-11-05T02:55:42.202Z,9.32
2022-11-05T02:58:09.003Z,9.29
2022-11-05T03:00:48.758Z,9.27
2022-11-05T03:03:27.754Z,9.26
2022-11-05T03:06:23.772Z,9.22
2022-11-05T03:09:19.721Z,9.22
2022-11-05T03:11:55.007Z,9.20
2022-11-05T03:14:26.778Z,9.17
2022-11-05T03:17:01.881Z,9.16
2022-11-05T03:19:38.428Z,9.13
2022-11-05T03:22:10.167Z,9.11
2022-11-05T03:24:42.012Z,9.08
2022-11-05T03:27:11.660Z,9.05
2022-11-05T03:29:42.443Z,9.01
2022-11-05T03:32:10.860Z,8.97
2022-11-05T03:34:42.737Z,8.95
2022-11-05T03:37:11.029Z,8.92
2022-11-05T03:39:40.896Z,8.89
2022-11-05T03:42:11.483Z,8.86
2022-11-05T03:44:42.233Z,8.84
2022-11-05T03:47:13.741Z,8.83
2022-11-05T03:49:52.961Z,8.81
2022-11-05T03:52:23.809Z,8.79
2022-11-05T03:54:50.472Z,8.76
2022-11-05T03:57:21.727Z,8.73
2022-11-05T03:59:50.524Z,8.72
2022-11-05T04:02:19.850Z,8.70
2022-11-05T04:04:48.188Z,8.67
2022-11-05T04:07:14.896Z,8.65
2022-11-05T04:09:41.470Z,8.62
2022-11-05T04:12:08.523Z,8.59
2022-11-05T04:14:35.205Z,8.57
2022-11-05T04:17:01.740Z,8.54
2022-11-05T04:19:28.401Z,8.52
2022-11-05T04:21:56.311Z,8.51
2022-11-05T04:24:22.836Z,8.49
2022-11-05T04:26:49.305Z,8.46
2022-11-05T04:29:15.847Z,8.44
2022-11-05T04:31:42.375Z,8.41
2022-11-05T04:34:08.873Z,8.39
2022-11-05T04:36:35.608Z,8.37
2022-11-05T04:39:03.768Z,8.34
2022-11-05T04:41:30.384Z,8.32
2022-11-05T04:43:57.022Z,8.29
2022-11-05T04:46:23.734Z,8.27
2022-11-05T04:48:50.290Z,8.23
2022-11-05T04:51:16.871Z,8.19
2022-11-05T04:53:43.380Z,8.15
2022-11-05T04:56:12.864Z,8.13
2022-11-05T04:58:40.215Z,8.09
2022-11-05T05:01:06.910Z,8.06
2022-11-05T05:03:33.480Z,8.04
2022-11-05T05:06:03.688Z,8.01
2022-11-05T05:08:30.627Z,7.98
2022-11-05T05:11:01.618Z,7.95
2022-11-05T05:13:29.451Z,7.93
2022-11-05T05:15:55.955Z,7.89
2022-11-05T05:18:22.414Z,7.87
2022-11-05T05:20:48.907Z,7.83
2022-11-05T05:23:15.363Z,7.82
2022-11-05T05:25:41.909Z,7.79
2022-11-05T05:28:08.456Z,7.76
2022-11-05T05:30:36.371Z,7.73
2022-11-05T05:33:03.431Z,7.71
2022-11-05T05:35:30.078Z,7.70
2022-11-05T05:37:57.131Z,7.67
2022-11-05T05:40:23.634Z,7.64
2022-11-05T05:42:53.681Z,7.61
2022-11-05T05:45:20.289Z,7.59
2022-11-05T05:47:48.341Z,7.56
2022-11-05T05:50:15.047Z,7.55
2022-11-05T05:52:41.508Z,7.53
2022-11-05T05:55:08.820Z,7.51
2022-11-05T05:57:35.313Z,7.49
2022-11-05T06:00:01.915Z,7.48
2022-11-05T06:02:30.210Z,7.48
2022-11-05T06:04:58.396Z,7.47
2022-11-05T06:07:24.928Z,7.46
2022-11-05T06:09:51.464Z,7.45
2022-11-05T06:12:18.044Z,7.45
2022-11-05T06:14:44.566Z,7.45
2022-11-05T06:17:11.196Z,7.45
2022-11-05T06:19:37.742Z,7.44
2022-11-05T06:22:05.579Z,7.42
2022-11-05T06:24:32.209Z,7.41
2022-11-05T06:26:58.852Z,7.39
2022-11-05T06:29:25.390Z,7.39
2022-11-05T06:31:51.943Z,7.39
2022-11-05T06:34:18.409Z,7.40
2022-11-05T06:36:45.030Z,7.39
2022-11-05T06:39:13.169Z,7.39
2022-11-05T06:42:03.837Z,7.39
2022-11-05T06:44:26.502Z,7.39
2022-11-05T06:46:53.004Z,7.40
2022-11-05T06:49:19.557Z,7.40
2022-11-05T06:51:46.051Z,7.41
2022-11-05T06:54:13.937Z,7.42
2022-11-05T06:56:40.641Z,7.45
2022-11-05T06:59:07.137Z,7.45
2022-11-05T07:01:34.145Z,7.47
2022-11-05T07:04:00.975Z,7.49
2022-11-05T07:06:27.651Z,7.52
2022-11-05T07:08:54.183Z,7.55
2022-11-05T07:11:22.082Z,7.58
2022-11-05T07:13:48.637Z,7.61
2022-11-05T07:16:15.186Z,7.64
2022-11-05T07:18:41.745Z,7.66
2022-11-05T07:21:08.222Z,7.68
2022-11-05T07:23:34.697Z,7.69
2022-11-05T07:26:01.301Z,7.72
2022-11-05T07:28:29.201Z,7.74
2022-11-05T07:30:58.248Z,7.77
2022-11-05T07:33:24.735Z,7.79
2022-11-05T07:35:51.273Z,7.81
2022-11-05T07:38:17.795Z,7.84
2022-11-05T07:40:44.274Z,7.86
2022-11-05T07:43:11.116Z,7.89
2022-11-05T07:45:39.168Z,7.92
2022-11-05T07:48:06.422Z,7.96
2022-11-05T07:50:34.693Z,7.99
2022-11-05T07:53:02.159Z,8.01
2022-11-05T07:55:29.229Z,8.04
2022-11-05T08:01:25.767Z,8.08
2022-11-05T08:03:52.688Z,8.10
2022-11-05T08:06:19.276Z,8.12
2022-11-05T08:08:45.805Z,8.14
2022-11-05T08:11:12.413Z,8.15
2022-11-05T08:13:39.158Z,8.17
2022-11-05T08:16:06.529Z,8.21
2022-11-05T08:18:35.603Z,8.26
2022-11-05T08:21:04.183Z,8.31
2022-11-05T08:23:32.091Z,8.36
2022-11-05T08:25:58.945Z,8.41
2022-11-05T08:28:26.378Z,8.48
2022-11-05T08:30:54.705Z,8.54
2022-11-05T08:33:22.329Z,8.62
2022-11-05T08:35:50.690Z,8.73
2022-11-05T08:38:19.061Z,8.82
2022-11-05T08:40:52.895Z,8.89
2022-11-05T08:43:19.483Z,8.96
2022-11-05T08:45:46.181Z,9.05
2022-11-05T08:48:14.421Z,9.14
2022-11-05T08:50:41.203Z,9.21
2022-11-05T08:53:10.178Z,9.30
2022-11-05T08:55:37.300Z,9.35
2022-11-05T08:58:07.678Z,9.40
2022-11-05T09:00:36.693Z,9.47
2022-11-05T09:03:06.347Z,9.52
2022-11-05T09:05:34.215Z,9.59
2022-11-05T09:08:01.748Z,9.62
2022-11-05T09:10:29.715Z,9.69
2022-11-05T09:12:56.313Z,9.74
2022-11-05T09:15:22.986Z,9.82
2022-11-05T09:17:49.641Z,9.90
2022-11-05T09:20:16.140Z,9.98
2022-11-05T09:22:43.567Z,10.04
2022-11-05T09:25:10.351Z,10.10
2022-11-05T09:27:38.244Z,10.15
2022-11-05T09:30:05.636Z,10.24
2022-11-05T09:32:32.290Z,10.31
2022-11-05T09:34:59.069Z,10.38
2022-11-05T09:37:25.756Z,10.46
2022-11-05T09:39:52.479Z,10.53
2022-11-05T09:42:23.325Z,10.58
2022-11-05T09:44:54.468Z,10.63
2022-11-05T09:47:26.098Z,10.68
2022-11-05T09:49:55.016Z,10.74
2022-11-05T09:52:23.633Z,10.80
2022-11-05T09:54:50.551Z,10.85
2022-11-05T09:57:21.939Z,10.88
2022-11-05T09:59:53.289Z,10.89
2022-11-05T10:02:23.066Z,10.92
2022-11-05T10:04:53.914Z,10.97
2022-11-05T10:07:24.147Z,11.00
2022-11-05T10:09:56.600Z,11.05
2022-11-05T10:12:28.587Z,11.10
2022-11-05T10:15:07.111Z,11.12
2022-11-05T10:17:39.248Z,11.16
2022-11-05T10:20:15.043Z,11.19
2022-11-05T10:22:45.199Z,11.21
2022-11-05T10:25:18.839Z,11.25
2022-11-05T10:27:50.376Z,11.28
2022-11-05T10:30:18.874Z,11.29
2022-11-05T10:32:46.488Z,11.35
2022-11-05T10:35:15.691Z,11.40
2022-11-05T10:37:42.224Z,11.42
2022-11-05T10:40:16.273Z,11.49
2022-11-05T10:42:56.658Z,11.54
2022-11-05T10:45:32.621Z,11.61
2022-11-05T10:51:27.996Z,11.65
2022-11-05T10:54:01.840Z,11.67
2022-11-05T10:56:32.182Z,11.70
2022-11-05T10:59:00.137Z,11.73
2022-11-05T11:01:29.138Z,11.77
2022-11-05T11:04:07.122Z,11.83
2022-11-05T11:06:36.121Z,11.86
2022-11-05T11:09:06.460Z,11.91
2022-11-05T11:11:35.904Z,11.96
2022-11-05T11:14:05.139Z,11.97
2022-11-05T11:16:38.702Z,12.01
2022-11-05T11:19:23.797Z,12.04
2022-11-05T11:22:12.469Z,12.07
2022-11-05T11:24:40.633Z,12.10
2022-11-05T11:27:12.318Z,12.15
2022-11-05T11:29:46.449Z,12.16
2022-11-05T11:32:19.451Z,12.20
2022-11-05T11:34:51.135Z,12.26
2022-11-05T11:37:22.360Z,12.29
2022-11-05T11:39:52.110Z,12.31
2022-11-05T11:42:23.775Z,12.34
2022-11-05T11:44:51.549Z,12.36
2022-11-05T11:47:21.973Z,12.38
2022-11-05T11:49:51.637Z,12.39
2022-11-05T11:52:24.799Z,12.41
2022-11-05T11:54:52.064Z,12.43
2022-11-05T11:57:24.373Z,12.46
2022-11-05T12:00:08.305Z,12.46
2022-11-05T12:02:57.307Z,12.49
2022-11-05T12:05:35.507Z,12.51
2022-11-05T12:08:12.945Z,12.51
2022-11-05T12:10:54.755Z,12.53
2022-11-05T12:13:54.676Z,12.49
2022-11-05T12:16:33.770Z,12.43
2022-11-05T12:19:11.314Z,12.38
2022-11-05T12:21:53.077Z,12.34
2022-11-05T12:25:04.014Z,12.28
2022-11-05T12:27:45.760Z,12.28
2022-11-05T12:30:15.833Z,12.32
2022-11-05T12:33:06.690Z,12.37
2022-11-05T12:35:48.989Z,12.49
2022-11-05T12:38:32.480Z,12.53
2022-11-05T12:41:08.573Z,12.49
2022-11-05T12:43:48.906Z,12.47
2022-11-05T12:46:28.194Z,12.42
2022-11-05T12:49:18.288Z,12.40
2022-11-05T12:52:10.434Z,12.36
2022-11-05T12:54:52.900Z,12.33
2022-11-05T12:57:20.853Z,12.31
2022-11-05T12:59:52.274Z,12.28
2022-11-05T13:02:25.533Z,12.28
2022-11-05T13:04:56.424Z,12.28
2022-11-05T13:07:29.342Z,12.27
2022-11-05T13:10:00.811Z,12.26
2022-11-05T13:12:31.782Z,12.26
2022-11-05T13:15:03.031Z,12.22
2022-11-05T13:17:36.975Z,12.17
2022-11-05T13:20:16.979Z,12.14
2022-11-05T13:22:48.237Z,12.13
2022-11-05T13:25:19.928Z,12.13
2022-11-05T13:27:53.317Z,12.15
2022-11-05T13:30:22.587Z,12.17
2022-11-05T13:32:54.164Z,12.21
2022-11-05T13:35:24.955Z,12.22
2022-11-05T13:37:57.389Z,12.24
2022-11-05T13:40:36.142Z,12.22
2022-11-05T13:43:26.104Z,12.22
2022-11-05T13:46:20.012Z,12.21
2022-11-05T13:49:03.615Z,12.20
2022-11-05T13:51:49.956Z,12.16
2022-11-05T13:54:56.800Z,12.11
2022-11-05T13:57:48.308Z,12.11
2022-11-05T14:00:19.199Z,12.08
2022-11-05T14:02:51.428Z,12.05
2022-11-05T14:05:27.127Z,12.04
2022-11-05T14:07:54.727Z,12.02
2022-11-05T14:10:36.879Z,12.00
2022-11-05T14:13:18.717Z,11.96
2022-11-05T14:16:03.162Z,11.93
2022-11-05T14:18:44.851Z,11.89
2022-11-05T14:21:44.865Z,11.84
2022-11-05T14:24:42.171Z,11.81
2022-11-05T14:27:45.325Z,11.76
2022-11-05T14:30:43.994Z,11.72
2022-11-05T14:33:17.567Z,11.68
2022-11-05T14:35:44.124Z,11.67
2022-11-05T14:38:20.904Z,11.66
2022-11-05T14:40:48.689Z,11.63
2022-11-05T14:43:21.430Z,11.60
2022-11-05T14:45:57.030Z,11.54
2022-11-05T14:48:36.804Z,11.50
2022-11-05T14:51:24.281Z,11.44
2022-11-05T14:53:57.827Z,11.39
2022-11-05T14:56:24.667Z,11.33
2022-11-05T14:59:30.887Z,11.26
2022-11-05T15:02:01.486Z,11.18
2022-11-05T15:04:30.539Z,11.12
2022-11-05T15:07:31.764Z,11.04
2022-11-05T15:10:07.247Z,10.98
2022-11-05T15:12:41.095Z,10.89
2022-11-05T15:15:22.150Z,10.81
2022-11-05T15:17:58.192Z,10.73
2022-11-05T15:20:38.829Z,10.65
2022-11-05T15:23:11.279Z,10.56
2022-11-05T15:25:47.805Z,10.47
2022-11-05T15:28:28.970Z,10.38
2022-11-05T15:30:59.501Z,10.29
2022-11-05T15:33:26.214Z,10.22
2022-11-05T15:35:52.891Z,10.13
2022-11-05T15:38:29.353Z,10.05
2022-11-05T15:41:03.677Z,9.96
2022-11-05T15:43:30.504Z,9.88
2022-11-05T15:46:06.958Z,9.80
2022-11-05T15:48:35.603Z,9.72
2022-11-05T15:51:02.276Z,9.66
2022-11-05T15:54:23.867Z,9.59
2022-11-05T15:56:49.445Z,9.50
2022-11-05T15:59:18.273Z,9.42
2022-11-05T16:01:48.990Z,9.36
2022-11-05T16:04:18.663Z,9.30
2022-11-05T16:06:49.191Z,9.22
2022-11-05T16:09:21.922Z,9.16
2022-11-05T16:11:48.472Z,9.08
2022-11-05T16:14:17.540Z,9.01
2022-11-05T16:16:45.136Z,8.95
2022-11-05T16:19:40.226Z,8.87
2022-11-05T16:22:07.884Z,8.80
2022-11-05T16:24:34.591Z,8.74
2022-11-05T16:27:03.449Z,8.68
2022-11-05T16:29:32.958Z,8.61
2022-11-05T16:32:01.974Z,8.55
2022-11-05T16:34:33.449Z,8.49
2022-11-05T16:37:01.507Z,8.44
2022-11-05T16:39:28.029Z,8.38
2022-11-05T16:41:54.523Z,8.32
2022-11-05T16:44:21.085Z,8.28
2022-11-05T16:46:49.458Z,8.21
2022-11-05T16:49:17.165Z,8.15
2022-11-05T16:51:43.788Z,8.09
2022-11-05T16:54:11.648Z,8.05
2022-11-05T16:56:38.833Z,8.00
2022-11-05T16:59:05.375Z,7.95
2022-11-05T17:01:34.407Z,7.89
2022-11-05T17:04:01.154Z,7.85
2022-11-05T17:06:27.769Z,7.79
2022-11-05T17:08:54.341Z,7.76
2022-11-05T17:11:22.283Z,7.71
2022-11-05T17:13:48.849Z,7.67
2022-11-05T17:16:17.342Z,7.61
2022-11-05T17:18:44.241Z,7.57
2022-11-05T17:21:11.134Z,7.54
2022-11-05T17:23:37.830Z,7.51
2022-11-05T17:26:06.891Z,7.48
2022-11-05T17:28:35.642Z,7.44
2022-11-05T17:31:04.342Z,7.40
2022-11-05T17:33:31.102Z,7.37
2022-11-05T17:35:57.875Z,7.33
2022-11-05T17:38:25.929Z,7.28
2022-11-05T17:40:53.369Z,7.24
2022-11-05T17:43:20.334Z,7.21
2022-11-05T17:45:50.817Z,7.18
2022-11-05T17:48:18.155Z,7.14
2022-11-05T17:50:46.582Z,7.10
2022-11-05T17:53:14.751Z,7.08
2022-11-05T17:55:42.427Z,7.02
2022-11-05T17:58:09.570Z,7.00
2022-11-05T18:00:36.753Z,6.96
2022-11-05T18:03:05.403Z,6.92
2022-11-05T18:05:34.062Z,6.89
2022-11-05T18:08:00.790Z,6.86
2022-11-05T18:10:27.609Z,6.81
2022-11-05T18:12:54.526Z,6.79
2022-11-05T18:15:21.640Z,6.75
2022-11-05T18:17:48.285Z,6.73
2022-11-05T18:20:19.393Z,6.70
2022-11-05T18:22:48.098Z,6.65
2022-11-05T18:25:14.824Z,6.63
2022-11-05T18:27:41.995Z,6.59
2022-11-05T18:30:10.586Z,6.57
2022-11-05T18:32:38.056Z,6.55
2022-11-05T18:35:05.221Z,6.52
2022-11-05T18:37:33.144Z,6.49
2022-11-05T18:39:59.727Z,6.46
2022-11-05T18:42:26.268Z,6.44
2022-11-05T18:44:52.883Z,6.41
2022-11-05T18:47:19.605Z,6.40
2022-11-05T18:49:46.165Z,6.39
2022-11-05T18:52:12.807Z,6.38
2022-11-05T18:54:40.761Z,6.35
2022-11-05T18:57:07.521Z,6.34
2022-11-05T18:59:38.281Z,6.32
2022-11-05T19:02:06.340Z,6.29
2022-11-05T19:04:34.995Z,6.27
2022-11-05T19:07:04.709Z,6.24
2022-11-05T19:09:32.447Z,6.22
2022-11-05T19:12:00.970Z,6.19
2022-11-05T19:14:27.714Z,6.15
2022-11-05T19:16:54.702Z,6.13
2022-11-05T19:19:21.448Z,6.10
2022-11-05T19:21:47.998Z,6.06
2022-11-05T19:24:17.620Z,6.02
2022-11-05T19:26:44.581Z,5.99
2022-11-05T19:29:12.612Z,5.96
2022-11-05T19:31:39.212Z,5.92
2022-11-05T19:34:06.088Z,5.90
2022-11-05T19:36:33.533Z,5.86
2022-11-05T19:39:05.868Z,5.83
2022-11-05T19:41:32.459Z,5.81
2022-11-05T19:43:59.063Z,5.78
2022-11-05T19:46:28.379Z,5.74
2022-11-05T19:48:54.903Z,5.71
2022-11-05T19:51:23.370Z,5.68
2022-11-05T19:53:50.328Z,5.65
2022-11-05T19:56:19.953Z,5.63
2022-11-05T19:58:46.964Z,5.62
2022-11-05T20:01:15.268Z,5.59
2022-11-05T20:03:43.696Z,5.55
2022-11-05T20:06:12.583Z,5.52
2022-11-05T20:08:53.296Z,5.51
2022-11-05T20:11:26.601Z,5.47
2022-11-05T20:13:53.144Z,5.44
2022-11-05T20:16:21.725Z,5.42
2022-11-05T20:18:49.856Z,5.40
2022-11-05T20:21:16.984Z,5.39
2022-11-05T20:23:43.572Z,5.36
2022-11-05T20:26:11.249Z,5.33
2022-11-05T20:28:39.224Z,5.30
2022-11-05T20:31:10.490Z,5.27
2022-11-05T20:33:37.379Z,5.24
2022-11-05T20:36:16.039Z,5.22
2022-11-05T20:38:43.372Z,5.19
2022-11-05T20:41:12.059Z,5.18
2022-11-05T20:43:39.818Z,5.15
2022-11-05T20:46:06.496Z,5.14
2022-11-05T20:48:34.012Z,5.12
2022-11-05T20:51:06.471Z,5.12
2022-11-05T20:53:33.725Z,5.11
2022-11-05T20:56:05.057Z,5.11
2022-11-05T20:58:34.761Z,5.11
2022-11-05T21:01:01.382Z,5.10
2022-11-05T21:03:27.890Z,5.08
2022-11-05T21:05:55.859Z,5.07
2022-11-05T21:08:23.685Z,5.07
2022-11-05T21:10:51.520Z,5.06
2022-11-05T21:13:18.328Z,5.05
2022-11-05T21:15:48.389Z,5.04
2022-11-05T21:18:15.047Z,5.04
2022-11-05T21:20:41.593Z,5.04
2022-11-05T21:23:08.148Z,5.02
2022-11-05T21:25:38.546Z,5.00
2022-11-05T21:28:05.356Z,5.00
2022-11-05T21:30:32.131Z,4.99
2022-11-05T21:32:58.624Z,4.97
2022-11-05T21:35:25.280Z,4.96
2022-11-05T21:37:51.790Z,4.95
2022-11-05T21:40:18.304Z,4.93
2022-11-05T21:42:46.238Z,4.93
2022-11-05T21:45:12.743Z,4.91
2022-11-05T21:47:39.365Z,4.89
2022-11-05T21:50:06.916Z,4.87
2022-11-05T21:52:33.653Z,4.86
2022-11-05T21:55:00.105Z,4.86
2022-11-05T21:57:26.594Z,4.84
2022-11-05T21:59:54.928Z,4.82
2022-11-05T22:02:23.227Z,4.82
2022-11-05T22:04:51.935Z,4.81
2022-11-05T22:07:20.711Z,4.80
2022-11-05T22:09:47.675Z,4.81
2022-11-05T22:12:14.489Z,4.81
2022-11-05T22:14:41.054Z,4.82
2022-11-05T22:17:09.903Z,4.82
2022-11-05T22:19:36.700Z,4.82
2022-11-05T22:22:04.451Z,4.81
2022-11-05T22:24:31.205Z,4.79
2022-11-05T22:26:58.809Z,4.79
2022-11-05T22:29:25.427Z,4.78
2022-11-05T22:31:51.959Z,4.79
2022-11-05T22:34:20.166Z,4.79
2022-11-05T22:36:46.872Z,4.81
2022-11-05T22:39:13.848Z,4.81
2022-11-05T22:41:40.807Z,4.83
2022-11-05T22:44:07.538Z,4.83
2022-11-05T22:46:34.142Z,4.83
2022-11-05T22:49:00.619Z,4.84
2022-11-05T22:51:30.824Z,4.86
2022-11-05T22:53:57.964Z,4.86
2022-11-05T22:56:26.258Z,4.86
2022-11-05T22:58:52.928Z,4.88
2022-11-05T23:01:21.013Z,4.88
2022-11-05T23:03:49.338Z,4.90
2022-11-05T23:06:19.798Z,4.92
2022-11-05T23:08:47.691Z,4.94
2022-11-05T23:11:15.743Z,4.95
2022-11-05T23:13:42.280Z,4.96
2022-11-05T23:16:08.935Z,4.95
2022-11-05T23:18:35.457Z,4.96
2022-11-05T23:21:02.082Z,4.97
2022-11-05T23:23:28.688Z,4.98
2022-11-05T23:25:58.421Z,4.99
2022-11-05T23:28:25.071Z,4.99
2022-11-05T23:30:51.561Z,5.01
2022-11-05T23:33:18.069Z,5.03
2022-11-05T23:35:44.565Z,5.03
2022-11-05T23:38:11.323Z,5.05
2022-11-05T23:40:38.088Z,5.05
2022-11-05T23:43:05.974Z,5.04
2022-11-05T23:45:33.378Z,5.03
2022-11-05T23:48:06.619Z,5.04
2022-11-05T23:50:38.548Z,5.04
2022-11-05T23:53:06.724Z,5.04
2022-11-05T23:55:33.386Z,5.04
2022-11-05T23:57:59.972Z,5.03
